Amunt
Inicio > meteoXarxa
Fes-te'n soci

METEOXARXA

Cabanes
Ubicació la Ribera de Cabanes
Comarca la Plana Alta
Altitud (msnm)
Posició geogràfica 40° 7' 31.08" N, 00° 9' 21.96" E
Model
Presa de dades
Font de les dades IVIA
Estadístiques. Resum
Data Temperatura (ºC) Humitat (%) Pressió (hPa) Vent (km/h) Precipit. (mm)
Mínima Mitjana Màxima Mínima Mitjana Màxima Mínima Mitjana Màxima Predom. Mitjana Ràfega màxima Total Dies de pluja
Mínima Mitjana Màxima Mínima Mitjana Màxima
Últimes dades diàries
23-03-2017 6,3     11,3     15,7 54,2 SW 4,0 17,1 0,0  
22-03-2017 6,8     13,4     18,4 67,5 W 4,0 13,8 0,0  
21-03-2017 7,1     12,4     17,5 74,6 NW 3,6 13,6 0,0  
20-03-2017 6,5     11,5     17,9 81,1 W 4,2 13,6 0,0  
19-03-2017 7,3     11,9     17,3 74,5 W 4,1 12,8 0,0  
18-03-2017 7,0     11,7     18,0 61,2 W 4,4 12,9 0,0  
17-03-2017 6,3     11,5     17,6 65,6 W 5,2 14,8 0,0  
16-03-2017 7,4     11,9     17,4 70,5 W 5,5 12,9 0,0  
15-03-2017 7,7     12,9     19,2 66,6 NW 4,8 19,3 0,0  
14-03-2017 9,7     13,9     19,4 64,8 NE 5,8 18,0 0,0  
13-03-2017 6,9     11,4     15,0 74,7 NE 8,9 25,1 12,5  
12-03-2017 9,0     14,0     20,6 72,5 NW 5,0 27,5 2,4  
11-03-2017 7,3     12,2     17,0 81,0 NW 3,5 12,7 0,0  
10-03-2017 8,8     14,8     20,5 67,0 NW 3,7 12,9 0,0  
09-03-2017 9,2     16,1     21,4 59,3 W 3,9 14,1 0,0  
08-03-2017 10,3     14,6     19,6 64,2 SW 3,5 17,3 0,0  
07-03-2017 6,0     15,2     22,5 47,3 W 3,9 22,5 0,0  
06-03-2017 9,2     16,1     25,4 56,3 NW 4,3 28,3 0,0  
05-03-2017 5,4     12,4     19,0 59,4 W 3,7 12,6 0,0  
04-03-2017 5,3     10,5     15,7 52,6 W 4,9 25,4 0,2  
03-03-2017 6,0     11,4     15,2 79,7 W 5,1 23,4 9,3  
02-03-2017 6,1     11,4     17,5 76,2 NW 4,3 12,2 0,0  
01-03-2017 6,3     11,5     16,2 72,4 W 4,3 17,2 0,0  
28-02-2017 9,3     12,7     15,7 60,9 NW 4,5 27,5 0,0  
27-02-2017 6,5     10,8     16,9 84,7 W 5,0 12,7 0,0  
26-02-2017 7,5     11,3     15,7 83,0 W 4,4 15,0 0,0  
25-02-2017 5,0     10,3     15,2 68,3 W 4,0 16,0 0,0  
24-02-2017 6,3     10,8     14,7 86,0 NW 2,1 10,9 6,5  
23-02-2017 8,7     12,2     17,5 66,3 NW 2,9 13,2 0,0  
22-02-2017 6,7     11,1     17,3 58,9 W 4,8 13,8 0,0  
21-02-2017 5,3     10,4     17,4 65,8 W 6,2 16,5 0,0  
20-02-2017 6,7     10,8     18,0 63,1 W 5,6 13,8 0,0  
Dades del mes en curs (actualitzades fins l'últim dia disponible)
03/2017 5,3 7,3 10,3 12,8 15,0 18,4 25,4 67,1   4,5 28,3 24,4  
Últimes dades mensuals
02/2017 3,5 7,3 11,4 16,5 23,1 25,0 70,4 97,2 O 5,8 48,2 20,4
01/2017 -0,9 5,5 9,7 14,5 18,7 14,9 65,7 96,3 NO 6,8 43,6 135,1
12/2016 4,4 8,5 14,5 11,7 11,8 16,5 19,6 52,2 77,6 88,6 6,1 30,3 82,6 8
11/2016 2,8 9,6 15,0 14,1 14,3 19,4 26,4 46,0 69,5 89,4 4,2 25,4 45,2 3
10/2016 11,2 15,7 18,5 19,4 19,5 24,1 27,9 64,0 77,2 90,0 3,4 29,3 0,4 2
09/2016 13,6 18,3 23,2 29,2 33,6 20,7 66,3 95,6 O 3,0 23,5 16,2
08/2016 15,8 20,2 25,2 30,8 34,5 25,2 68,4 94,5 O 2,2 20,1 19,4
07/2016 15,1 19,7 25,4 31,0 33,8 27,2 62,9 91,0 SO 2,1 21,2 0,0
06/2016 12,6 16,7 21,0 22,3 24,7 27,6 30,2 41,6 62,4 74,4 3,5 19,6 0,6 2
05/2016 6,3 12,2 17,6 22,8 29,1 16,5 68,1 97,5 SO 4,0 28,2 32,7
04/2016 5,8 10,0 15,2 20,9 28,2 21,7 67,1 97,7 O 4,5 28,7 42,4
03/2016 2,6 7,3 12,7 18,4 24,1 19,2 59,8 95,9 NO 4,6 28,7 43,6
02/2016 0,7 6,8 12,3 18,7 26,9 18,5 55,9 94,1 O 4,9 35,9 5,9
Dades de l'any en curs (actualitzades fins l'últim dia disponible)
2017 -0,9 6,6 13,8 11,2 9,0 16,3 25,4 67,8   5,8 48,2 179,9  
Últimes dades anuals
2007 727,0
2008 605,0
2009 -1,4 15,3 22,7 20,2 8,0 25,6 42,7 34,0 66,2 95,0 4,4 63,0 484,2 50
2010 -1,5 11,6 23,3 16,4 5,3 21,4 35,0 28,0 67,1 96,0 4,7 60,0 361,0 92
2011 448,9
2012 198,9
2014 -1,7 13,0 17,8 23,2 34,6 13,4 66,7 95,5 SO 4,4 45,0 357,9
2015 -4,1 11,6 17,1 23,2 42,3 6,5 70,5 100,0 SO 2,7 32,2 504,3